Amalga, Utah
Current Conditions -  °F | °C
As of 6:51 PM on Sunday 21 Dec 2014 (Local Time) from KLGU Reporting Station
Overcast Overcast  
Wind Chill:   Ceiling: 7000
Heat Index:   Visibility: 10mi
Dew Point:   Wind: 8mph
Humidity: 73%   Direction: 280°W
Pressure: 29.94"   Gusts: NA
Location:  41.8466°N, 111.898°W
Report Text: KLGU 220151Z AUTO 28007KT 10SM SCT050 OVC070 07/02 A2994 RMK AO2 SLP135 T00670022
Loading
Personal Weather Stations






























Interactive Weather Map New forecast layout! Learn more

10-Day Weather Forecast

Advertisements
Track Severe Weather on mobile